Time;durP1;ratioP1;P1;durP2;ratioP2;P2;SDS_P1;SDS_P2;PMS_P1;PMS_P2;Temp;Humidity;BMP_temperature;BMP_pressure;BME280_temperature;BME280_humidity;BME280_pressure;Samples;Min_cycle;Max_cycle;Signal;HPM_P1;HPM_P2
2021/08/27 00:01:38;;;;;;;4.95;1.83;;;12.60;91.40;;;;;;5024809;28;20104;-73
2021/08/27 00:04:04;;;;;;;7.80;2.33;;;12.60;91.60;;;;;;5034109;28;20044;-72
2021/08/27 00:06:30;;;;;;;6.50;2.03;;;12.60;91.20;;;;;;5034273;28;20044;-70
2021/08/27 00:08:56;;;;;;;4.78;1.65;;;12.60;91.20;;;;;;5027930;28;20036;-73
2021/08/27 00:11:21;;;;;;;6.15;1.77;;;12.60;91.50;;;;;;5035328;28;20052;-73
2021/08/27 00:13:47;;;;;;;4.47;1.70;;;12.60;91.20;;;;;;5030733;28;20033;-71
2021/08/27 00:16:13;;;;;;;6.75;1.95;;;12.50;91.30;;;;;;5030259;28;20048;-73
2021/08/27 00:18:38;;;;;;;5.47;1.70;;;12.50;91.50;;;;;;5034830;28;20064;-73
2021/08/27 00:21:04;;;;;;;6.28;2.00;;;12.40;91.70;;;;;;5034680;28;20812;-72
2021/08/27 00:23:30;;;;;;;3.22;1.58;;;12.30;91.70;;;;;;5027819;28;20483;-71
2021/08/27 00:25:56;;;;;;;4.65;1.88;;;12.30;92.00;;;;;;5027936;28;20271;-70
2021/08/27 00:28:21;;;;;;;9.52;2.00;;;12.30;92.00;;;;;;5029350;28;20236;-72
2021/08/27 00:30:47;;;;;;;6.35;2.10;;;12.30;91.80;;;;;;5030218;28;20036;-72
2021/08/27 00:33:13;;;;;;;6.47;1.70;;;12.30;91.80;;;;;;5033269;28;20499;-73
2021/08/27 00:35:39;;;;;;;7.55;1.90;;;12.30;91.90;;;;;;5038558;28;20526;-73
2021/08/27 00:38:05;;;;;;;4.45;1.80;;;12.20;91.80;;;;;;5029023;28;20138;-70
2021/08/27 00:40:31;;;;;;;5.13;2.13;;;12.20;91.70;;;;;;5024019;28;20045;-71
2021/08/27 00:42:57;;;;;;;9.43;2.22;;;12.20;91.90;;;;;;5037076;28;20096;-72
2021/08/27 00:45:22;;;;;;;9.73;2.10;;;12.20;91.70;;;;;;5041818;28;20122;-73
2021/08/27 00:47:48;;;;;;;5.57;1.95;;;12.20;91.70;;;;;;5032076;28;20040;-73
2021/08/27 00:50:13;;;;;;;6.30;1.90;;;12.20;91.70;;;;;;5031993;28;20025;-73
2021/08/27 00:52:40;;;;;;;6.28;1.85;;;12.20;91.40;;;;;;5029049;28;20097;-72
2021/08/27 00:55:06;;;;;;;9.07;1.80;;;12.20;91.50;;;;;;5031354;28;20045;-70
2021/08/27 00:57:32;;;;;;;3.35;1.90;;;12.10;91.60;;;;;;5033533;28;20022;-72
2021/08/27 00:59:58;;;;;;;7.55;2.30;;;12.10;91.60;;;;;;5038024;28;20092;-73
2021/08/27 01:02:24;;;;;;;7.78;2.10;;;12.10;91.70;;;;;;5026640;28;20575;-73
2021/08/27 01:04:52;;;;;;;6.90;1.90;;;12.10;91.50;;;;;;5036160;28;20144;-73
2021/08/27 01:07:25;;;;;;;3.58;1.73;;;12.10;91.70;;;;;;5018711;28;20033;-73
2021/08/27 01:10:03;;;;;;;5.15;2.00;;;12.10;91.90;;;;;;5036134;28;20325;-72
2021/08/27 01:13:11;;;;;;;5.65;1.67;;;12.10;91.80;;;;;;5029925;28;20036;-71
2021/08/27 01:16:02;;;;;;;6.25;1.90;;;12.00;91.80;;;;;;5019792;28;20068;-71
2021/08/27 01:18:39;;;;;;;4.32;1.85;;;11.90;91.90;;;;;;5023133;28;20565;-73
2021/08/27 01:21:23;;;;;;;6.40;1.70;;;11.80;92.00;;;;;;5033206;28;20025;-71
2021/08/27 01:24:00;;;;;;;4.43;2.08;;;11.80;92.10;;;;;;5028549;28;20062;-73
2021/08/27 01:26:34;;;;;;;8.98;2.45;;;11.70;92.40;;;;;;5031401;28;20112;-73
2021/08/27 01:29:02;;;;;;;4.60;1.73;;;11.60;92.50;;;;;;5028424;28;20163;-70
2021/08/27 01:31:39;;;;;;;6.57;1.80;;;11.60;92.60;;;;;;5034848;28;20124;-69
2021/08/27 01:34:05;;;;;;;5.75;2.05;;;11.50;92.80;;;;;;5030730;28;20029;-70
2021/08/27 01:36:35;;;;;;;5.60;2.13;;;11.50;93.20;;;;;;5031962;28;20037;-73
2021/08/27 01:39:04;;;;;;;6.00;2.00;;;11.50;93.00;;;;;;5026324;28;20025;-71
2021/08/27 01:41:32;;;;;;;4.70;2.20;;;11.40;93.20;;;;;;5032861;28;20099;-70
2021/08/27 01:44:03;;;;;;;6.60;1.88;;;11.30;93.40;;;;;;5032949;28;20070;-73
2021/08/27 01:46:31;;;;;;;6.73;2.30;;;11.30;93.40;;;;;;5036008;28;20345;-73
2021/08/27 01:48:57;;;;;;;4.45;1.85;;;11.20;93.60;;;;;;5029227;28;20292;-71
2021/08/27 01:51:24;;;;;;;4.65;1.95;;;11.10;93.70;;;;;;5031724;28;20036;-69
2021/08/27 01:53:50;;;;;;;6.53;2.30;;;11.20;93.70;;;;;;5027460;28;20082;-72
2021/08/27 01:56:16;;;;;;;5.80;2.42;;;11.10;93.80;;;;;;5030354;28;20550;-71
2021/08/27 01:58:42;;;;;;;8.05;2.30;;;11.20;93.90;;;;;;5035177;28;20562;-73
2021/08/27 02:01:08;;;;;;;9.38;2.30;;;11.30;93.70;;;;;;5037159;28;20184;-71
2021/08/27 02:03:35;;;;;;;8.18;2.50;;;11.30;93.50;;;;;;5026120;28;20030;-70
2021/08/27 02:06:01;;;;;;;5.57;1.90;;;11.30;93.40;;;;;;5038099;28;20040;-70
2021/08/27 02:08:30;;;;;;;7.28;2.33;;;11.40;93.20;;;;;;5021237;28;20609;-72
2021/08/27 02:10:57;;;;;;;6.25;2.10;;;11.50;92.90;;;;;;5038143;28;20036;-72
2021/08/27 02:13:23;;;;;;;11.15;2.30;;;11.50;93.00;;;;;;5030306;28;20102;-72
2021/08/27 02:15:49;;;;;;;5.05;1.80;;;11.50;92.80;;;;;;5038314;28;20033;-71
2021/08/27 02:18:15;;;;;;;5.65;1.90;;;11.50;92.60;;;;;;5033790;28;20367;-73
2021/08/27 02:20:41;;;;;;;5.07;1.83;;;11.60;92.60;;;;;;5034849;28;20033;-70
2021/08/27 02:23:09;;;;;;;5.88;2.17;;;11.60;92.50;;;;;;5026175;28;20396;-72
2021/08/27 02:25:35;;;;;;;5.95;2.13;;;11.60;92.40;;;;;;5036082;28;20029;-73
2021/08/27 02:28:04;;;;;;;4.18;1.85;;;11.70;92.40;;;;;;5030473;28;20061;-70
2021/08/27 02:30:32;;;;;;;5.05;1.73;;;11.70;92.30;;;;;;5032151;28;20069;-72
2021/08/27 02:33:01;;;;;;;7.28;2.15;;;11.80;92.30;;;;;;5029486;28;20030;-73
2021/08/27 02:35:28;;;;;;;4.25;1.92;;;11.80;92.10;;;;;;5026717;28;20056;-72
2021/08/27 02:37:55;;;;;;;9.25;1.88;;;11.80;92.20;;;;;;5031515;28;20484;-72
2021/08/27 02:40:21;;;;;;;6.30;1.80;;;11.90;91.90;;;;;;5038324;28;20052;-73
2021/08/27 02:42:46;;;;;;;5.25;1.67;;;11.90;91.80;;;;;;5025180;28;20029;-71
2021/08/27 02:45:12;;;;;;;4.70;1.83;;;11.90;91.90;;;;;;5040204;28;20025;-71
2021/08/27 02:47:38;;;;;;;3.72;1.80;;;11.90;91.60;;;;;;5023413;28;20037;-73
2021/08/27 02:50:04;;;;;;;4.70;1.65;;;12.00;91.70;;;;;;5027719;28;20120;-73
2021/08/27 02:52:55;;;;;;;6.40;1.85;;;12.00;91.70;;;;;;5031336;28;20025;-74
2021/08/27 02:55:25;;;;;;;3.97;1.73;;;12.00;91.50;;;;;;5029322;28;20055;-73
2021/08/27 02:57:59;;;;;;;9.43;2.10;;;12.00;91.30;;;;;;5032284;28;20186;-70
2021/08/27 03:00:27;;;;;;;5.88;1.88;;;12.00;91.40;;;;;;5020987;28;20025;-71
2021/08/27 03:02:54;;;;;;;5.28;1.83;;;12.00;91.40;;;;;;5020644;28;20407;-73
2021/08/27 03:05:23;;;;;;;7.38;2.22;;;12.10;91.30;;;;;;5040643;28;20483;-72
2021/08/27 03:07:56;;;;;;;4.80;1.70;;;12.10;91.10;;;;;;5037772;28;20106;-72
2021/08/27 03:10:32;;;;;;;6.25;1.58;;;12.10;91.00;;;;;;5036843;28;20115;-70
2021/08/27 03:13:03;;;;;;;5.50;2.08;;;12.10;90.80;;;;;;5036640;28;20520;-71
2021/08/27 03:15:42;;;;;;;7.32;2.05;;;12.20;90.60;;;;;;5041180;28;20063;-72
2021/08/27 03:18:26;;;;;;;4.70;1.60;;;12.30;90.60;;;;;;5030044;28;20092;-73
2021/08/27 03:21:14;;;;;;;4.07;1.48;;;12.30;90.30;;;;;;5036317;28;20116;-72
2021/08/27 03:23:42;;;;;;;5.82;1.92;;;12.30;90.00;;;;;;5032310;28;20467;-73
2021/08/27 03:26:14;;;;;;;6.60;1.90;;;12.40;90.30;;;;;;5021978;28;20396;-73
2021/08/27 03:28:44;;;;;;;5.50;1.60;;;12.40;90.20;;;;;;5039929;28;20087;-73
2021/08/27 03:31:11;;;;;;;6.03;1.60;;;12.40;89.70;;;;;;5032753;28;20458;-72
2021/08/27 03:33:38;;;;;;;7.38;2.08;;;12.40;90.00;;;;;;5039530;28;20139;-73
2021/08/27 03:36:05;;;;;;;6.85;1.90;;;12.50;89.90;;;;;;5035735;28;20083;-73
2021/08/27 03:38:30;;;;;;;5.85;1.70;;;12.40;89.90;;;;;;5030849;28;20066;-71
2021/08/27 03:40:57;;;;;;;5.28;1.70;;;12.50;89.80;;;;;;5021184;28;20318;-73
2021/08/27 03:43:24;;;;;;;10.27;2.05;;;12.50;89.80;;;;;;5038984;28;20364;-73
2021/08/27 03:45:51;;;;;;;5.38;1.50;;;12.50;90.00;;;;;;5036693;28;20710;-73
2021/08/27 03:48:22;;;;;;;9.63;1.85;;;12.50;90.10;;;;;;5040866;28;20230;-72
2021/08/27 03:50:49;;;;;;;6.65;1.90;;;12.50;90.00;;;;;;5040506;28;20459;-72
2021/08/27 03:53:15;;;;;;;8.32;2.00;;;12.40;89.90;;;;;;5032996;28;20037;-69
2021/08/27 03:55:41;;;;;;;8.07;2.50;;;12.50;90.10;;;;;;5035121;28;20132;-73
2021/08/27 03:58:11;;;;;;;8.18;1.83;;;12.50;90.20;;;;;;5030605;28;20535;-73
2021/08/27 04:00:37;;;;;;;5.13;1.50;;;12.50;90.10;;;;;;5034530;28;20084;-73
2021/08/27 04:03:03;;;;;;;6.15;2.03;;;12.50;90.00;;;;;;5038864;28;20334;-72
2021/08/27 04:05:29;;;;;;;6.90;2.10;;;12.50;90.00;;;;;;5030643;28;20112;-73
2021/08/27 04:07:55;;;;;;;4.35;1.90;;;12.50;90.10;;;;;;5024901;28;20137;-73
2021/08/27 04:10:21;;;;;;;4.95;1.58;;;12.50;90.30;;;;;;5037646;28;20476;-71
2021/08/27 04:12:47;;;;;;;6.75;1.75;;;12.50;90.90;;;;;;5028094;28;20026;-72
2021/08/27 04:15:15;;;;;;;5.85;2.00;;;12.50;91.40;;;;;;5039585;28;20349;-73
2021/08/27 04:17:41;;;;;;;6.72;1.92;;;12.50;91.40;;;;;;5027606;28;20044;-72
2021/08/27 04:20:10;;;;;;;3.88;1.83;;;12.50;91.40;;;;;;5035051;28;20514;-64
2021/08/27 04:22:36;;;;;;;3.50;1.60;;;12.40;91.70;;;;;;5033251;28;20171;-64
2021/08/27 04:25:02;;;;;;;9.23;2.08;;;12.50;91.50;;;;;;5033353;28;20459;-65
2021/08/27 04:27:27;;;;;;;4.53;1.63;;;12.50;91.80;;;;;;5027256;28;20040;-63
2021/08/27 04:29:53;;;;;;;6.35;1.75;;;12.40;92.00;;;;;;5038813;28;20515;-64
2021/08/27 04:32:20;;;;;;;5.35;1.65;;;12.50;92.40;;;;;;5032327;28;20196;-64
2021/08/27 04:34:46;;;;;;;7.75;2.03;;;12.40;92.50;;;;;;5041777;28;20069;-64
2021/08/27 04:37:11;;;;;;;5.20;2.08;;;12.40;92.80;;;;;;5033919;28;20155;-64
2021/08/27 04:39:37;;;;;;;8.10;1.95;;;12.40;93.40;;;;;;5040803;28;20059;-64
2021/08/27 04:42:04;;;;;;;7.13;2.53;;;12.30;94.00;;;;;;5025386;28;20078;-64
2021/08/27 04:44:29;;;;;;;4.35;1.83;;;12.20;94.50;;;;;;5034568;28;20091;-64
2021/08/27 04:46:55;;;;;;;9.18;2.15;;;12.10;94.80;;;;;;5019990;28;20396;-64
2021/08/27 04:49:21;;;;;;;8.30;2.10;;;12.10;95.00;;;;;;5042316;28;20092;-64
2021/08/27 04:51:46;;;;;;;8.45;1.90;;;12.10;95.00;;;;;;5034553;28;20413;-64
2021/08/27 04:54:12;;;;;;;7.78;2.20;;;12.10;95.30;;;;;;5034464;28;20027;-63
2021/08/27 04:56:37;;;;;;;8.70;2.08;;;12.10;95.10;;;;;;5032241;28;20029;-64
2021/08/27 04:59:03;;;;;;;5.45;1.90;;;12.10;95.40;;;;;;5039990;28;20413;-64
2021/08/27 05:01:29;;;;;;;8.23;2.35;;;12.10;95.70;;;;;;5034226;28;22370;-64
2021/08/27 05:03:55;;;;;;;7.00;2.33;;;12.10;95.70;;;;;;5029015;28;20028;-64
2021/08/27 05:06:20;;;;;;;7.65;1.88;;;12.10;95.90;;;;;;5035866;28;20069;-64
2021/08/27 05:08:46;;;;;;;7.93;2.10;;;12.10;96.20;;;;;;5036180;28;20048;-64
2021/08/27 05:11:12;;;;;;;9.93;2.42;;;12.10;96.30;;;;;;5032252;28;20081;-64
2021/08/27 05:13:37;;;;;;;7.15;2.08;;;12.10;96.50;;;;;;5032228;28;20112;-65
2021/08/27 05:16:03;;;;;;;5.13;2.15;;;12.10;96.70;;;;;;5028144;28;20017;-64
2021/08/27 05:18:29;;;;;;;7.25;2.20;;;12.10;96.80;;;;;;5031578;28;20025;-64
2021/08/27 05:20:56;;;;;;;7.22;2.50;;;12.10;96.90;;;;;;5025049;28;20454;-64
2021/08/27 05:23:21;;;;;;;8.85;2.70;;;12.10;97.10;;;;;;5033999;28;20036;-64
2021/08/27 05:25:47;;;;;;;9.05;2.22;;;12.10;97.10;;;;;;5034623;28;20097;-64
2021/08/27 05:28:13;;;;;;;5.05;2.20;;;12.00;97.00;;;;;;5030134;28;20036;-64
2021/08/27 05:30:38;;;;;;;8.90;2.03;;;12.10;97.10;;;;;;5027179;28;20034;-64
2021/08/27 05:33:04;;;;;;;8.18;2.47;;;12.10;97.20;;;;;;5029734;28;20341;-64
2021/08/27 05:35:30;;;;;;;9.15;2.30;;;12.10;97.20;;;;;;5041426;28;20199;-65
2021/08/27 05:37:55;;;;;;;8.85;2.22;;;12.10;97.30;;;;;;5033275;28;20112;-64
2021/08/27 05:40:21;;;;;;;6.75;2.40;;;12.10;97.30;;;;;;5030213;28;20056;-64
2021/08/27 05:42:46;;;;;;;9.05;2.45;;;12.10;97.30;;;;;;5031476;28;20166;-63
2021/08/27 05:45:14;;;;;;;6.75;2.20;;;12.10;97.30;;;;;;5027657;28;20036;-65
2021/08/27 05:47:41;;;;;;;9.27;2.28;;;12.10;97.20;;;;;;5033300;28;20033;-65
2021/08/27 05:50:07;;;;;;;8.50;2.28;;;12.20;97.40;;;;;;5039129;28;20033;-65
2021/08/27 05:52:33;;;;;;;8.82;2.60;;;12.20;97.40;;;;;;5037059;28;20198;-65
2021/08/27 05:54:58;;;;;;;6.03;2.35;;;12.20;97.50;;;;;;5026168;28;20033;-65
2021/08/27 05:57:24;;;;;;;8.00;2.33;;;12.20;97.50;;;;;;5025466;28;20120;-65
2021/08/27 05:59:50;;;;;;;7.82;2.58;;;12.20;97.50;;;;;;5022853;28;20100;-64
2021/08/27 06:02:15;;;;;;;13.25;2.80;;;12.30;97.40;;;;;;5036905;28;20032;-65
2021/08/27 06:04:41;;;;;;;6.68;2.50;;;12.30;97.50;;;;;;5042480;28;20115;-65
2021/08/27 06:07:06;;;;;;;7.20;2.22;;;12.30;97.40;;;;;;5036929;28;20025;-64
2021/08/27 06:09:32;;;;;;;7.97;2.67;;;12.30;97.30;;;;;;5035355;28;20044;-64
2021/08/27 06:11:58;;;;;;;7.03;2.38;;;12.30;97.30;;;;;;5031856;28;20041;-65
2021/08/27 06:14:23;;;;;;;10.77;2.55;;;12.30;97.40;;;;;;5034275;28;20052;-65
2021/08/27 06:16:49;;;;;;;8.20;2.15;;;12.40;97.60;;;;;;5032114;28;20114;-65
2021/08/27 06:19:14;;;;;;;8.05;2.25;;;12.40;97.60;;;;;;5033347;28;20613;-65
2021/08/27 06:21:40;;;;;;;9.23;2.50;;;12.50;97.70;;;;;;5025431;28;20021;-64
2021/08/27 06:24:06;;;;;;;8.50;2.35;;;12.50;97.70;;;;;;5035805;28;20040;-70
2021/08/27 06:26:32;;;;;;;8.65;2.45;;;12.50;97.50;;;;;;5025830;28;20025;-64
2021/08/27 06:29:00;;;;;;;5.88;2.25;;;12.50;97.40;;;;;;5027526;28;20044;-67
2021/08/27 06:31:26;;;;;;;8.65;2.30;;;12.60;97.40;;;;;;5029474;28;20632;-67
2021/08/27 06:33:52;;;;;;;6.63;2.00;;;12.50;97.20;;;;;;5031749;28;20504;-67
2021/08/27 06:36:18;;;;;;;11.05;2.13;;;12.60;97.20;;;;;;5027102;28;20049;-72
2021/08/27 06:38:44;;;;;;;6.95;2.15;;;12.60;97.30;;;;;;5038247;28;20049;-64
2021/08/27 06:41:10;;;;;;;7.13;2.22;;;12.70;97.10;;;;;;5027050;28;20116;-64
2021/08/27 06:43:39;;;;;;;5.95;2.33;;;12.80;97.00;;;;;;5025114;28;20349;-65
2021/08/27 06:46:13;;;;;;;8.32;2.15;;;12.90;96.90;;;;;;5032490;28;20037;-66
2021/08/27 06:48:39;;;;;;;6.25;2.08;;;13.00;96.70;;;;;;5037287;28;20104;-66
2021/08/27 06:51:04;;;;;;;3.38;1.58;;;13.00;96.60;;;;;;5045674;28;20123;-66
2021/08/27 06:53:30;;;;;;;4.40;2.03;;;13.10;96.30;;;;;;5034680;28;20068;-66
2021/08/27 06:55:56;;;;;;;5.82;1.92;;;13.10;96.20;;;;;;5044677;28;20554;-66
2021/08/27 06:58:22;;;;;;;11.50;2.20;;;13.30;96.20;;;;;;5030669;28;20033;-66
2021/08/27 07:00:48;;;;;;;5.85;1.55;;;13.40;96.00;;;;;;5037620;28;20661;-66
2021/08/27 07:03:13;;;;;;;5.90;2.00;;;13.30;95.40;;;;;;5032250;28;20033;-66
2021/08/27 07:05:39;;;;;;;8.70;2.33;;;13.40;95.60;;;;;;5037378;28;20412;-66
2021/08/27 07:08:05;;;;;;;10.07;2.03;;;13.40;95.70;;;;;;5029297;28;20033;-66
2021/08/27 07:10:31;;;;;;;5.07;1.70;;;13.30;95.60;;;;;;5037015;28;20116;-66
2021/08/27 07:12:57;;;;;;;10.10;2.20;;;13.30;95.60;;;;;;5034941;28;20531;-66
2021/08/27 07:15:23;;;;;;;7.00;1.95;;;13.20;95.90;;;;;;5032414;28;20045;-66
2021/08/27 07:17:49;;;;;;;4.38;1.70;;;13.20;96.10;;;;;;5037894;28;20025;-67
2021/08/27 07:20:16;;;;;;;7.68;1.80;;;13.20;96.20;;;;;;5026468;28;20029;-66
2021/08/27 07:22:42;;;;;;;4.07;2.00;;;13.20;96.20;;;;;;5026432;28;20415;-66
2021/08/27 07:25:09;;;;;;;5.63;1.95;;;13.20;96.20;;;;;;5035899;28;20036;-66
2021/08/27 07:27:34;;;;;;;8.93;1.90;;;13.10;96.10;;;;;;5032480;28;20082;-66
2021/08/27 07:30:00;;;;;;;6.20;1.92;;;13.10;96.30;;;;;;5042205;28;20025;-66
2021/08/27 07:32:26;;;;;;;4.50;2.03;;;13.10;96.10;;;;;;5031875;28;20514;-66
2021/08/27 07:34:51;;;;;;;4.00;1.88;;;13.10;96.30;;;;;;5039246;28;20353;-70
2021/08/27 07:37:17;;;;;;;9.32;2.00;;;13.20;96.40;;;;;;5032874;28;20029;-65
2021/08/27 07:39:43;;;;;;;11.27;2.05;;;13.20;96.50;;;;;;5040702;28;20208;-64
2021/08/27 07:42:10;;;;;;;9.93;2.08;;;13.30;96.80;;;;;;5037517;28;20108;-64
2021/08/27 07:44:37;;;;;;;7.20;2.08;;;13.20;96.60;;;;;;5035704;28;20329;-66
2021/08/27 07:47:03;;;;;;;6.65;1.98;;;13.30;96.70;;;;;;5026507;28;20033;-66
2021/08/27 07:49:29;;;;;;;7.88;2.03;;;13.20;96.50;;;;;;5034345;28;20025;-66
2021/08/27 07:51:56;;;;;;;5.57;1.70;;;13.20;96.20;;;;;;5026372;28;20083;-66
2021/08/27 07:54:22;;;;;;;4.82;1.88;;;13.30;96.40;;;;;;5028265;28;20116;-67
2021/08/27 07:56:47;;;;;;;5.10;1.73;;;13.30;96.40;;;;;;5033701;28;20038;-68
2021/08/27 07:59:13;;;;;;;5.28;1.85;;;13.40;96.20;;;;;;5036239;28;20105;-71
2021/08/27 08:01:39;;;;;;;8.30;1.90;;;13.50;96.20;;;;;;5032094;28;20041;-65
2021/08/27 08:04:05;;;;;;;4.07;1.92;;;13.60;96.30;;;;;;5031968;28;20055;-66
2021/08/27 08:06:31;;;;;;;7.85;1.80;;;13.70;96.30;;;;;;5035126;28;20052;-66
2021/08/27 08:08:58;;;;;;;9.77;2.08;;;13.70;95.90;;;;;;5031641;28;20375;-66
2021/08/27 08:11:24;;;;;;;6.70;1.80;;;13.60;95.80;;;;;;5028334;28;20131;-66
2021/08/27 08:13:49;;;;;;;3.92;1.75;;;13.60;95.80;;;;;;5031310;28;20491;-66
2021/08/27 08:16:15;;;;;;;4.95;1.85;;;13.70;96.10;;;;;;5027913;28;20120;-66
2021/08/27 08:18:41;;;;;;;4.05;1.70;;;13.60;96.10;;;;;;5030052;28;20051;-66
2021/08/27 08:21:07;;;;;;;3.97;1.70;;;13.70;96.30;;;;;;5030305;28;20059;-66
2021/08/27 08:23:33;;;;;;;3.95;1.40;;;13.60;96.30;;;;;;5028628;28;20280;-69
2021/08/27 08:25:59;;;;;;;5.32;1.85;;;13.60;96.60;;;;;;5034881;28;20055;-66
2021/08/27 08:28:24;;;;;;;3.65;1.50;;;13.60;96.80;;;;;;5026667;28;20037;-66
2021/08/27 08:30:51;;;;;;;4.40;2.20;;;13.50;97.00;;;;;;5027325;28;20112;-67
2021/08/27 08:33:18;;;;;;;3.40;1.80;;;13.50;97.40;;;;;;5031679;28;20103;-66
2021/08/27 08:35:44;;;;;;;5.45;2.10;;;13.50;97.60;;;;;;5036858;28;20149;-67
2021/08/27 08:38:09;;;;;;;6.90;2.00;;;13.50;97.70;;;;;;5033000;28;20029;-67
2021/08/27 08:40:42;;;;;;;3.80;1.88;;;13.50;97.80;;;;;;5035603;28;20036;-68
2021/08/27 08:43:09;;;;;;;5.82;2.17;;;13.50;97.60;;;;;;5033370;28;20068;-68
2021/08/27 08:45:39;;;;;;;4.97;2.00;;;13.50;97.60;;;;;;5026656;28;20192;-67
2021/08/27 08:48:06;;;;;;;4.35;1.95;;;13.50;97.80;;;;;;5024452;28;20026;-68
2021/08/27 08:50:33;;;;;;;4.20;1.90;;;13.60;97.80;;;;;;5033994;28;20081;-68
2021/08/27 08:52:59;;;;;;;4.03;2.05;;;13.70;97.80;;;;;;5030996;28;20028;-68
2021/08/27 08:55:26;;;;;;;5.22;1.90;;;13.80;97.90;;;;;;5031833;28;20041;-67
2021/08/27 08:57:53;;;;;;;4.97;2.42;;;13.80;97.60;;;;;;5019730;28;20877;-68
2021/08/27 09:00:19;;;;;;;3.80;2.15;;;13.90;97.80;;;;;;5033103;28;20025;-67
2021/08/27 09:02:44;;;;;;;6.38;2.38;;;14.00;97.80;;;;;;5024460;28;20468;-68
2021/08/27 09:05:10;;;;;;;4.10;1.75;;;14.10;97.80;;;;;;5032607;28;20040;-68
2021/08/27 09:07:36;;;;;;;8.10;2.22;;;14.40;97.70;;;;;;5028077;28;20404;-68
2021/08/27 09:10:03;;;;;;;2.30;1.23;;;14.40;97.30;;;;;;5036267;28;20476;-68
2021/08/27 09:12:30;;;;;;;3.30;1.73;;;14.30;96.70;;;;;;5032490;28;20094;-68
2021/08/27 09:15:01;;;;;;;5.18;1.90;;;14.30;96.70;;;;;;5035829;28;20052;-68
2021/08/27 09:17:39;;;;;;;3.80;1.60;;;14.30;96.70;;;;;;5022268;28;21679;-66
2021/08/27 09:20:07;;;;;;;3.97;1.83;;;14.60;96.90;;;;;;5026567;28;20029;-66
2021/08/27 09:22:48;;;;;;;3.95;1.60;;;15.00;96.90;;;;;;5028039;28;20080;-66
2021/08/27 09:25:14;;;;;;;2.80;1.48;;;15.10;96.40;;;;;;5026467;28;20073;-66
2021/08/27 09:28:02;;;;;;;3.00;1.60;;;15.20;96.20;;;;;;5028829;28;20456;-66
2021/08/27 09:30:28;;;;;;;4.20;1.40;;;15.10;95.20;;;;;;5035664;28;20051;-66
2021/08/27 09:32:55;;;;;;;3.65;1.60;;;15.30;95.40;;;;;;5028800;28;20314;-66
2021/08/27 09:35:24;;;;;;;3.17;1.42;;;15.30;95.70;;;;;;5029862;28;20037;-66
2021/08/27 09:37:53;;;;;;;4.68;1.48;;;15.20;95.30;;;;;;5024323;28;20079;-66
2021/08/27 09:40:21;;;;;;;2.25;1.13;;;15.20;95.30;;;;;;5032120;28;20025;-66
2021/08/27 09:42:51;;;;;;;3.42;1.65;;;15.20;95.60;;;;;;5029378;28;20162;-66
2021/08/27 09:45:31;;;;;;;4.18;1.50;;;15.30;96.20;;;;;;5028595;28;20128;-66
2021/08/27 09:48:00;;;;;;;3.92;1.38;;;15.10;95.60;;;;;;5025153;28;20067;-67
2021/08/27 09:50:32;;;;;;;2.97;1.23;;;15.20;95.60;;;;;;5026253;28;20449;-66
2021/08/27 09:53:01;;;;;;;3.03;1.40;;;15.30;95.60;;;;;;5030734;28;20126;-66
2021/08/27 09:55:29;;;;;;;3.72;1.10;;;15.70;96.30;;;;;;5026843;28;20132;-66
2021/08/27 09:58:21;;;;;;;2.78;1.42;;;15.70;95.30;;;;;;5024570;28;20476;-67
2021/08/27 10:01:02;;;;;;;2.67;1.00;;;15.90;94.80;;;;;;5031973;28;20091;-66
2021/08/27 10:03:28;;;;;;;2.03;1.10;;;15.80;93.30;;;;;;5034927;28;20047;-66
2021/08/27 10:05:54;;;;;;;3.28;1.00;;;15.90;93.40;;;;;;5032508;28;20120;-67
2021/08/27 10:08:23;;;;;;;2.17;0.90;;;16.00;93.30;;;;;;5027113;28;20029;-67
2021/08/27 10:10:53;;;;;;;2.05;1.08;;;16.10;93.40;;;;;;5023216;28;20115;-67
2021/08/27 10:13:20;;;;;;;1.70;0.90;;;16.30;93.20;;;;;;5025664;28;20154;-67
2021/08/27 10:15:46;;;;;;;3.53;1.05;;;16.30;92.00;;;;;;5022682;28;20036;-66
2021/08/27 10:18:12;;;;;;;2.28;0.95;;;16.30;92.00;;;;;;5023633;28;20029;-66
2021/08/27 10:20:40;;;;;;;4.78;1.25;;;16.30;92.30;;;;;;5028885;28;20041;-66
2021/08/27 10:23:11;;;;;;;3.10;1.30;;;16.20;91.50;;;;;;5024451;28;20021;-67
2021/08/27 10:25:37;;;;;;;;;;;16.30;92.50;;;;;;5029204;28;20044;-67
2021/08/27 10:28:08;;;;;;;2.00;1.25;;;16.30;92.60;;;;;;5021004;28;19934;-66
2021/08/27 10:30:48;;;;;;;3.00;1.25;;;16.40;93.60;;;;;;5022530;28;20040;-66
2021/08/27 10:33:19;;;;;;;3.58;1.50;;;16.20;93.20;;;;;;5029382;28;20041;-67
2021/08/27 10:35:47;;;;;;;;;;;16.00;93.70;;;;;;5031459;28;20067;-66
2021/08/27 10:38:45;;;;;;;2.92;1.13;;;16.00;94.50;;;;;;5020080;28;19909;-66
2021/08/27 10:41:19;;;;;;;1.73;1.10;;;16.00;94.60;;;;;;5027991;28;20067;-66
2021/08/27 10:43:59;;;;;;;3.88;1.20;;;15.90;94.30;;;;;;5030099;28;20033;-66
2021/08/27 10:47:05;;;;;;;1.85;1.25;;;15.80;94.20;;;;;;5025076;28;20033;-66
2021/08/27 10:50:00;;;;;;;2.13;1.23;;;16.30;93.50;;;;;;5020122;28;20135;-66
2021/08/27 10:52:38;;;;;;;2.70;1.38;;;17.00;92.40;;;;;;5018303;28;20120;-66
2021/08/27 10:55:10;;;;;;;3.88;1.00;;;17.70;91.60;;;;;;5026203;28;20063;-67
2021/08/27 10:57:47;;;;;;;2.55;1.30;;;18.20;89.50;;;;;;5031455;28;20052;-67
2021/08/27 11:00:13;;;;;;;3.17;1.20;;;18.30;88.90;;;;;;5028033;28;20075;-67
2021/08/27 11:02:52;;;;;;;3.10;1.40;;;18.20;88.60;;;;;;5031666;28;20055;-70
2021/08/27 11:05:42;;;;;;;2.67;1.23;;;18.00;89.70;;;;;;5030975;28;20129;-70
2021/08/27 11:08:32;;;;;;;1.75;1.05;;;17.60;89.50;;;;;;5032788;28;20108;-70
2021/08/27 11:11:09;;;;;;;2.97;1.10;;;17.30;90.20;;;;;;5031628;28;20053;-69
2021/08/27 11:13:37;;;;;;;2.03;0.90;;;16.90;89.60;;;;;;5036490;28;20501;-69
2021/08/27 11:16:21;;;;;;;3.08;1.10;;;16.80;90.30;;;;;;5031413;28;20109;-69
2021/08/27 11:18:52;;;;;;;3.20;1.38;;;16.90;92.20;;;;;;5020874;28;20101;-71
2021/08/27 11:21:35;;;;;;;3.22;1.20;;;16.70;91.50;;;;;;5027459;28;20108;-70
2021/08/27 11:24:18;;;;;;;2.97;1.40;;;16.40;92.30;;;;;;5028456;28;20105;-71
2021/08/27 11:26:48;;;;;;;23.40;2.40;;;16.10;94.20;;;;;;5048988;28;20462;-71
2021/08/27 11:29:49;;;;;;;3.90;1.10;;;15.80;95.70;;;;;;5028537;28;20025;-71
2021/08/27 11:32:27;;;;;;;1.60;0.77;;;15.30;96.20;;;;;;5023765;28;20151;-70
2021/08/27 11:34:56;;;;;;;6.45;1.17;;;15.00;96.10;;;;;;5031019;28;20033;-71
2021/08/27 11:37:31;;;;;;;1.08;0.50;;;14.80;96.40;;;;;;5023339;28;20116;-71
2021/08/27 11:39:57;;;;;;;1.00;0.50;;;14.30;96.20;;;;;;5038086;28;20051;-71
2021/08/27 11:42:23;;;;;;;2.90;0.60;;;13.90;95.90;;;;;;5031762;28;20025;-72
2021/08/27 11:45:10;;;;;;;1.40;0.70;;;13.90;97.10;;;;;;5035138;28;20028;-72
2021/08/27 11:47:47;;;;;;;2.25;0.50;;;14.00;97.60;;;;;;5026609;28;20018;-71
2021/08/27 11:50:19;;;;;;;4.40;0.70;;;14.10;97.80;;;;;;5031340;28;20123;-71
2021/08/27 11:52:48;;;;;;;4.20;1.13;;;14.40;97.80;;;;;;5041523;28;20039;-71
2021/08/27 11:55:16;;;;;;;3.33;1.27;;;15.00;98.20;;;;;;5024017;28;20476;-71
2021/08/27 11:57:54;;;;;;;5.80;1.60;;;15.90;98.30;;;;;;5029057;28;20068;-71
2021/08/27 12:00:33;;;;;;;4.45;1.10;;;16.60;96.00;;;;;;5034224;28;20029;-72
2021/08/27 12:02:59;;;;;;;1.80;1.02;;;17.50;95.50;;;;;;5035297;28;20075;-72
2021/08/27 12:05:26;;;;;;;4.43;1.30;;;18.10;92.60;;;;;;5027442;28;20500;-72
2021/08/27 12:07:58;;;;;;;4.28;1.35;;;18.60;91.00;;;;;;5030419;28;20480;-73
2021/08/27 12:10:25;;;;;;;3.55;1.50;;;18.80;92.10;;;;;;5034376;28;20033;-72
2021/08/27 12:12:53;;;;;;;1.48;0.98;;;18.80;89.10;;;;;;5034670;28;20029;-72
2021/08/27 12:15:24;;;;;;;4.30;1.20;;;18.00;89.80;;;;;;5030826;28;20033;-72
2021/08/27 12:17:52;;;;;;;1.42;0.98;;;17.50;91.20;;;;;;5034751;28;20025;-72
2021/08/27 12:20:20;;;;;;;3.65;1.50;;;16.70;92.10;;;;;;5033726;28;20053;-71
2021/08/27 12:22:47;;;;;;;7.43;1.30;;;16.60;94.00;;;;;;5039060;28;20068;-72
2021/08/27 12:25:27;;;;;;;2.85;1.00;;;16.40;95.40;;;;;;5021188;28;20029;-72
2021/08/27 12:27:55;;;;;;;2.20;1.10;;;16.10;95.30;;;;;;5039055;28;20090;-72
2021/08/27 12:30:21;;;;;;;3.15;0.88;;;16.30;96.10;;;;;;5024989;28;20077;-72
2021/08/27 12:32:48;;;;;;;2.40;0.85;;;16.30;95.70;;;;;;5035295;28;20095;-73
2021/08/27 12:35:17;;;;;;;4.05;1.02;;;16.50;95.40;;;;;;5041282;28;20389;-71
2021/08/27 12:37:43;;;;;;;2.60;0.75;;;16.60;95.10;;;;;;5041676;28;20100;-72
2021/08/27 12:40:15;;;;;;;3.38;0.93;;;16.70;94.50;;;;;;5028944;28;20021;-71
2021/08/27 12:42:57;;;;;;;3.85;0.82;;;16.80;94.20;;;;;;5032421;28;20101;-74
2021/08/27 12:45:22;;;;;;;7.55;0.75;;;17.60;94.40;;;;;;5023421;28;20033;-72
2021/08/27 12:47:49;;;;;;;1.65;0.65;;;18.30;94.20;;;;;;5036198;28;20040;-72
2021/08/27 12:50:15;;;;;;;2.28;0.93;;;18.90;92.00;;;;;;5039850;28;20037;-71
2021/08/27 12:53:02;;;;;;;1.90;0.77;;;19.70;90.90;;;;;;5041132;28;20100;-71
2021/08/27 12:55:32;;;;;;;2.13;0.43;;;20.00;90.10;;;;;;5033030;28;20059;-72
2021/08/27 12:57:59;;;;;;;0.95;0.43;;;19.70;84.60;;;;;;5032457;28;20116;-71